createdAt,value
2022-10-02T00:00:14.634Z,4.70
2022-10-02T00:03:17.625Z,4.37
2022-10-02T00:06:14.904Z,6.40
2022-10-02T00:09:03.582Z,4.33
2022-10-02T00:11:52.297Z,3.97
2022-10-02T00:14:42.262Z,4.97
2022-10-02T00:17:33.376Z,3.83
2022-10-02T00:20:25.128Z,4.03
2022-10-02T00:23:10.538Z,4.10
2022-10-02T00:26:23.729Z,4.43
2022-10-02T00:29:25.667Z,4.97
2022-10-02T00:32:29.848Z,7.03
2022-10-02T00:35:34.896Z,4.43
2022-10-02T00:38:45.290Z,4.27
2022-10-02T00:41:36.635Z,4.33
2022-10-02T00:44:40.918Z,4.07
2022-10-02T00:47:31.877Z,4.30
2022-10-02T00:50:42.217Z,5.07
2022-10-02T00:54:05.066Z,4.47
2022-10-02T00:56:58.760Z,4.27
2022-10-02T01:03:18.350Z,3.38
2022-10-02T01:06:03.744Z,4.10
2022-10-02T01:08:49.569Z,3.63
2022-10-02T01:11:36.865Z,3.40
2022-10-02T01:14:32.743Z,4.20
2022-10-02T01:17:31.645Z,3.90
2022-10-02T01:20:30.053Z,4.03
2022-10-02T01:23:21.609Z,4.77
2022-10-02T01:26:07.216Z,5.37
2022-10-02T01:28:52.956Z,4.20
2022-10-02T01:31:38.431Z,4.57
2022-10-02T01:34:24.160Z,3.97
2022-10-02T01:37:09.832Z,6.07
2022-10-02T01:40:00.192Z,3.47
2022-10-02T01:42:45.538Z,3.90
2022-10-02T01:45:58.977Z,3.40
2022-10-02T01:49:05.834Z,3.17
2022-10-02T01:52:21.153Z,3.10
2022-10-02T01:55:25.757Z,5.73
2022-10-02T01:58:36.354Z,5.17
2022-10-02T02:01:25.221Z,4.20
2022-10-02T02:04:13.592Z,3.27
2022-10-02T02:07:25.940Z,4.82
2022-10-02T02:10:34.295Z,4.00
2022-10-02T02:13:31.007Z,3.23
2022-10-02T02:16:41.216Z,4.10
2022-10-02T02:19:56.781Z,5.13
2022-10-02T02:22:49.226Z,2.70
2022-10-02T02:25:39.885Z,3.37
2022-10-02T02:28:29.616Z,3.63
2022-10-02T02:31:19.904Z,3.13
2022-10-02T02:34:13.449Z,3.33
2022-10-02T02:37:05.991Z,3.07
2022-10-02T02:39:56.250Z,3.37
2022-10-02T02:42:53.763Z,3.30
2022-10-02T02:45:50.847Z,3.33
2022-10-02T02:48:45.371Z,4.13
2022-10-02T02:51:36.556Z,3.40
2022-10-02T02:54:28.980Z,3.30
2022-10-02T02:57:17.063Z,3.37
2022-10-02T03:00:04.968Z,3.83
2022-10-02T03:02:54.422Z,4.13
2022-10-02T03:05:44.525Z,3.73
2022-10-02T03:08:37.538Z,3.27
2022-10-02T03:11:46.181Z,4.32
2022-10-02T03:14:47.117Z,4.03
2022-10-02T03:17:32.160Z,4.60
2022-10-02T03:20:43.723Z,5.70
2022-10-02T03:23:45.524Z,4.87
2022-10-02T03:26:41.130Z,5.47
2022-10-02T03:29:40.636Z,4.70
2022-10-02T03:32:27.915Z,4.23
2022-10-02T03:35:15.137Z,5.73
2022-10-02T03:38:06.752Z,6.10
2022-10-02T03:40:58.021Z,7.13
2022-10-02T03:43:43.419Z,5.73
2022-10-02T03:46:28.736Z,4.37
2022-10-02T03:49:14.139Z,7.43
2022-10-02T03:51:59.541Z,5.57
2022-10-02T03:54:45.336Z,5.70
2022-10-02T03:57:33.907Z,5.40
2022-10-02T04:00:26.405Z,5.00
2022-10-02T04:03:19.769Z,4.47
2022-10-02T04:06:56.995Z,5.13
2022-10-02T04:09:45.077Z,4.83
2022-10-02T04:12:34.761Z,6.07
2022-10-02T04:15:28.787Z,3.87
2022-10-02T04:18:25.074Z,4.20
2022-10-02T04:21:19.742Z,3.83
2022-10-02T04:24:16.182Z,5.83
2022-10-02T04:27:21.626Z,4.73
2022-10-02T04:30:13.135Z,3.23
2022-10-02T04:33:11.011Z,4.07
2022-10-02T04:36:07.995Z,3.80
2022-10-02T04:39:07.367Z,4.57
2022-10-02T04:42:15.110Z,5.57
2022-10-02T04:45:16.448Z,4.43
2022-10-02T04:48:01.927Z,4.60
2022-10-02T04:51:18.124Z,5.10
2022-10-02T04:54:15.778Z,3.50
2022-10-02T04:57:27.537Z,4.23
2022-10-02T05:00:18.423Z,4.77
2022-10-02T05:03:13.007Z,4.70
2022-10-02T05:06:23.071Z,3.73
2022-10-02T05:09:32.695Z,4.13
2022-10-02T05:12:45.865Z,4.67
2022-10-02T05:15:59.298Z,4.07
2022-10-02T05:19:19.001Z,4.30
2022-10-02T05:22:16.449Z,5.33
2022-10-02T05:25:19.749Z,4.13
2022-10-02T05:28:30.600Z,5.57
2022-10-02T05:31:40.592Z,2.97
2022-10-02T05:34:47.286Z,3.30
2022-10-02T05:37:38.786Z,4.97
2022-10-02T05:40:31.555Z,4.00
2022-10-02T05:43:47.384Z,3.93
2022-10-02T05:46:43.930Z,3.73
2022-10-02T05:49:41.837Z,4.13
2022-10-02T05:52:35.180Z,4.57
2022-10-02T05:55:37.106Z,5.88
2022-10-02T05:59:18.812Z,4.57
2022-10-02T06:02:28.067Z,5.03
2022-10-02T06:05:35.385Z,5.03
2022-10-02T06:09:18.944Z,4.63
2022-10-02T06:15:33.322Z,4.43
2022-10-02T06:18:24.049Z,5.80
2022-10-02T06:21:36.293Z,6.00
2022-10-02T06:24:34.456Z,2.70
2022-10-02T06:27:41.447Z,4.80
2022-10-02T06:30:30.087Z,4.13
2022-10-02T06:33:19.114Z,7.17
2022-10-02T06:36:04.734Z,4.03
2022-10-02T06:39:27.729Z,3.27
2022-10-02T06:42:22.274Z,2.63
2022-10-02T06:45:24.713Z,4.40
2022-10-02T06:48:40.995Z,4.00
2022-10-02T06:51:45.247Z,4.00
2022-10-02T06:55:19.641Z,2.67
2022-10-02T07:01:25.225Z,5.57
2022-10-02T07:04:42.838Z,3.47
2022-10-02T07:07:34.778Z,4.57
2022-10-02T07:10:38.257Z,4.30
2022-10-02T07:13:53.550Z,2.72
2022-10-02T07:17:01.851Z,2.70
2022-10-02T07:20:29.837Z,2.87
2022-10-02T07:23:51.126Z,2.60
2022-10-02T07:27:21.574Z,3.03
2022-10-02T07:30:17.683Z,10.10
2022-10-02T07:33:06.145Z,4.03
2022-10-02T07:36:29.065Z,4.30
2022-10-02T07:39:26.657Z,4.10
2022-10-02T07:42:23.663Z,3.00
2022-10-02T07:45:34.394Z,3.10
2022-10-02T07:48:47.263Z,8.20
2022-10-02T07:51:50.391Z,3.53
2022-10-02T07:54:40.126Z,3.20
2022-10-02T07:57:56.462Z,4.90
2022-10-02T08:00:49.076Z,6.87
2022-10-02T08:04:07.263Z,3.53
2022-10-02T08:06:58.728Z,2.77
2022-10-02T08:09:49.264Z,4.80
2022-10-02T08:12:47.910Z,4.03
2022-10-02T08:15:38.599Z,9.93
2022-10-02T08:18:36.252Z,7.33
2022-10-02T08:21:24.486Z,5.73
2022-10-02T08:24:17.895Z,8.60
2022-10-02T08:27:11.258Z,5.53
2022-10-02T08:30:04.291Z,3.63
2022-10-02T08:32:50.060Z,11.77
2022-10-02T08:36:24.370Z,6.67
2022-10-02T08:39:21.985Z,4.82
2022-10-02T08:42:28.611Z,4.47
2022-10-02T08:45:36.002Z,7.70
2022-10-02T08:48:49.684Z,4.77
2022-10-02T08:52:02.710Z,4.63
2022-10-02T08:55:07.175Z,4.82
2022-10-02T08:57:58.970Z,5.50
2022-10-02T09:01:03.907Z,4.70
2022-10-02T09:04:09.217Z,4.93
2022-10-02T09:07:33.796Z,5.90
2022-10-02T09:10:50.841Z,7.47
2022-10-02T09:13:43.664Z,4.43
2022-10-02T09:17:06.332Z,6.93
2022-10-02T09:20:11.364Z,7.13
2022-10-02T09:23:21.912Z,6.20
2022-10-02T09:26:25.597Z,8.00
2022-10-02T09:29:42.271Z,8.40
2022-10-02T09:33:00.867Z,7.73
2022-10-02T09:36:14.568Z,8.40
2022-10-02T09:39:30.255Z,6.32
2022-10-02T09:42:54.170Z,7.27
2022-10-02T09:46:10.838Z,10.60
2022-10-02T09:49:32.133Z,7.10
2022-10-02T09:52:55.000Z,9.03
2022-10-02T09:55:52.709Z,7.70
2022-10-02T09:59:17.635Z,8.23
2022-10-02T10:02:25.823Z,8.73
2022-10-02T10:05:43.802Z,9.43
2022-10-02T10:08:44.071Z,5.83
2022-10-02T10:11:32.460Z,5.87
2022-10-02T10:14:33.903Z,6.63
2022-10-02T10:17:48.396Z,7.43
2022-10-02T10:21:11.518Z,4.00
2022-10-02T10:24:13.340Z,7.17
2022-10-02T10:27:17.182Z,4.30
2022-10-02T10:33:34.870Z,7.63
2022-10-02T10:37:07.851Z,8.35
2022-10-02T10:40:17.099Z,7.40
2022-10-02T10:43:13.287Z,8.70
2022-10-02T10:46:07.414Z,4.13
2022-10-02T10:49:18.410Z,7.93
2022-10-02T10:52:28.602Z,4.90
2022-10-02T10:55:36.222Z,9.20
2022-10-02T10:58:31.993Z,4.63
2022-10-02T11:01:23.875Z,5.00
2022-10-02T11:04:28.368Z,6.63
2022-10-02T11:07:42.587Z,5.20
2022-10-02T11:13:44.161Z,6.63
2022-10-02T11:16:49.354Z,7.17
2022-10-02T11:19:44.145Z,5.87
2022-10-02T11:22:55.023Z,4.50
2022-10-02T11:26:21.515Z,3.33
2022-10-02T11:29:34.787Z,4.87
2022-10-02T11:32:21.173Z,7.30
2022-10-02T11:35:19.362Z,9.23
2022-10-02T11:38:07.936Z,6.23
2022-10-02T11:41:20.961Z,14.40
2022-10-02T11:44:37.664Z,7.00
2022-10-02T11:47:38.253Z,5.33
2022-10-02T11:50:30.751Z,4.30
2022-10-02T11:53:35.634Z,7.72
2022-10-02T11:56:39.616Z,7.23
2022-10-02T11:59:34.300Z,11.83
2022-10-02T12:02:35.019Z,9.20
2022-10-02T12:05:54.973Z,12.63
2022-10-02T12:09:06.432Z,12.43
2022-10-02T12:12:22.504Z,11.20
2022-10-02T12:15:28.220Z,8.80
2022-10-02T12:18:32.861Z,11.60
2022-10-02T12:22:00.213Z,7.27
2022-10-02T12:25:28.215Z,7.33
2022-10-02T12:28:32.373Z,8.03
2022-10-02T12:31:32.277Z,7.70
2022-10-02T12:34:55.544Z,8.13
2022-10-02T12:38:19.794Z,8.70
2022-10-02T12:44:25.299Z,9.00
2022-10-02T12:47:29.268Z,10.13
2022-10-02T12:50:40.045Z,6.70
2022-10-02T12:53:49.899Z,7.60
2022-10-02T12:56:41.694Z,9.70
2022-10-02T13:00:01.614Z,10.77
2022-10-02T13:03:09.087Z,9.73
2022-10-02T13:06:30.108Z,6.60
2022-10-02T13:09:30.876Z,9.87
2022-10-02T13:12:24.788Z,8.63
2022-10-02T13:15:26.437Z,6.10
2022-10-02T13:18:43.516Z,10.53
2022-10-02T13:21:59.008Z,6.90
2022-10-02T13:25:01.477Z,9.80
2022-10-02T13:27:53.698Z,8.70
2022-10-02T13:31:11.618Z,8.33
2022-10-02T13:34:18.782Z,12.87
2022-10-02T13:37:04.807Z,11.53
2022-10-02T13:40:18.576Z,8.10
2022-10-02T13:46:04.327Z,5.57
2022-10-02T13:49:13.720Z,6.83
2022-10-02T13:52:26.512Z,9.50
2022-10-02T13:55:26.966Z,6.20
2022-10-02T13:58:23.617Z,10.50
2022-10-02T14:01:36.036Z,8.10
2022-10-02T14:04:46.176Z,10.03
2022-10-02T14:07:31.956Z,9.87
2022-10-02T14:10:24.067Z,9.00
2022-10-02T14:13:28.841Z,11.87
2022-10-02T14:16:32.596Z,8.50
2022-10-02T14:19:53.005Z,8.07
2022-10-02T14:23:16.236Z,10.47
2022-10-02T14:26:35.758Z,10.77
2022-10-02T14:29:38.608Z,8.73
2022-10-02T14:32:58.742Z,6.95
2022-10-02T14:35:47.381Z,5.40
2022-10-02T14:38:54.734Z,8.43
2022-10-02T14:41:59.127Z,9.60
2022-10-02T14:45:10.515Z,6.80
2022-10-02T14:48:09.919Z,11.07
2022-10-02T14:51:20.679Z,7.73
2022-10-02T14:54:20.822Z,7.20
2022-10-02T14:57:20.342Z,6.87
2022-10-02T15:00:15.225Z,5.33
2022-10-02T15:03:33.862Z,6.50
2022-10-02T15:06:31.599Z,8.10
2022-10-02T15:09:27.516Z,9.50
2022-10-02T15:12:19.641Z,7.93
2022-10-02T15:15:17.464Z,7.07
2022-10-02T15:18:42.221Z,6.47
2022-10-02T15:21:32.842Z,11.83
2022-10-02T15:24:34.121Z,11.80
2022-10-02T15:27:19.750Z,13.73
2022-10-02T15:30:19.707Z,12.40
2022-10-02T15:33:46.225Z,10.80
2022-10-02T15:36:50.711Z,9.47
2022-10-02T15:40:06.076Z,9.37
2022-10-02T15:42:58.651Z,13.33
2022-10-02T15:46:12.335Z,9.00
2022-10-02T15:49:27.142Z,8.88
2022-10-02T15:52:15.455Z,8.47
2022-10-02T15:55:10.985Z,9.63
2022-10-02T15:58:24.440Z,5.57
2022-10-02T16:01:12.857Z,10.18
2022-10-02T16:04:18.635Z,6.10
2022-10-02T16:07:38.036Z,8.00
2022-10-02T16:10:41.669Z,9.03
2022-10-02T16:16:52.916Z,7.47
2022-10-02T16:19:50.436Z,6.77
2022-10-02T16:23:01.221Z,9.83
2022-10-02T16:25:46.636Z,7.60
2022-10-02T16:28:48.772Z,6.93
2022-10-02T16:31:43.759Z,6.47
2022-10-02T16:34:57.077Z,4.77
2022-10-02T16:38:13.925Z,6.78
2022-10-02T16:41:15.540Z,8.23
2022-10-02T16:44:10.747Z,9.97
2022-10-02T16:47:28.565Z,5.90
2022-10-02T16:50:32.005Z,11.37
2022-10-02T16:53:29.893Z,11.05
2022-10-02T16:56:32.244Z,7.20
2022-10-02T16:59:24.083Z,7.10
2022-10-02T17:02:22.725Z,6.53
2022-10-02T17:05:11.096Z,5.17
2022-10-02T17:08:05.520Z,8.73
2022-10-02T17:11:23.286Z,5.43
2022-10-02T17:14:55.017Z,8.03
2022-10-02T17:17:43.106Z,5.57
2022-10-02T17:20:34.007Z,6.53
2022-10-02T17:23:25.380Z,4.47
2022-10-02T17:26:22.678Z,7.80
2022-10-02T17:29:13.416Z,6.50
2022-10-02T17:32:01.780Z,8.13
2022-10-02T17:34:50.489Z,6.17
2022-10-02T17:37:53.507Z,8.27
2022-10-02T17:40:46.104Z,10.00
2022-10-02T17:43:50.728Z,7.13
2022-10-02T17:46:42.374Z,11.60
2022-10-02T17:49:49.103Z,6.93
2022-10-02T17:53:02.856Z,13.30
2022-10-02T17:56:28.576Z,6.72
2022-10-02T17:59:30.705Z,7.00
2022-10-02T18:02:53.908Z,11.73
2022-10-02T18:05:46.512Z,13.53
2022-10-02T18:08:38.058Z,18.20
2022-10-02T18:11:46.016Z,7.30
2022-10-02T18:14:52.620Z,8.00
2022-10-02T18:17:51.630Z,11.73
2022-10-02T18:21:14.398Z,10.27
2022-10-02T18:24:09.757Z,10.97
2022-10-02T18:27:18.568Z,7.33
2022-10-02T18:30:20.788Z,6.90
2022-10-02T18:33:42.747Z,10.67
2022-10-02T18:36:56.374Z,10.27
2022-10-02T18:40:20.008Z,9.35
2022-10-02T18:43:12.189Z,8.60
2022-10-02T18:46:33.711Z,6.50
2022-10-02T18:49:39.962Z,6.23
2022-10-02T18:53:03.872Z,9.00
2022-10-02T18:56:09.350Z,6.40
2022-10-02T18:59:19.899Z,7.87
2022-10-02T19:02:27.278Z,7.00
2022-10-02T19:05:35.678Z,8.97
2022-10-02T19:08:50.487Z,4.83
2022-10-02T19:11:47.754Z,4.60
2022-10-02T19:14:42.330Z,8.40
2022-10-02T19:17:30.871Z,6.83
2022-10-02T19:20:34.756Z,6.83
2022-10-02T19:23:38.784Z,5.10
2022-10-02T19:26:40.658Z,6.63
2022-10-02T19:29:57.974Z,4.30
2022-10-02T19:32:43.392Z,4.90
2022-10-02T19:35:40.679Z,4.17
2022-10-02T19:38:39.411Z,3.90
2022-10-02T19:41:25.671Z,3.77
2022-10-02T19:44:25.632Z,8.37
2022-10-02T19:47:45.798Z,5.90
2022-10-02T19:50:49.161Z,2.80
2022-10-02T19:53:45.186Z,5.20
2022-10-02T19:56:41.168Z,4.53
2022-10-02T19:59:41.920Z,4.90
2022-10-02T20:02:38.748Z,3.57
2022-10-02T20:05:31.541Z,5.37
2022-10-02T20:08:20.005Z,3.65
2022-10-02T20:11:14.926Z,3.93
2022-10-02T20:14:10.591Z,5.90
2022-10-02T20:17:11.127Z,4.27
2022-10-02T20:20:01.567Z,5.53
2022-10-02T20:23:01.787Z,3.33
2022-10-02T20:25:58.446Z,4.40
2022-10-02T20:29:10.031Z,3.30
2022-10-02T20:32:02.154Z,4.03
2022-10-02T20:34:53.665Z,4.23
2022-10-02T20:37:40.818Z,4.13
2022-10-02T20:40:30.324Z,5.00
2022-10-02T20:43:34.374Z,4.93
2022-10-02T20:46:32.050Z,3.77
2022-10-02T20:49:55.386Z,5.23
2022-10-02T20:52:56.039Z,2.70
2022-10-02T20:55:45.945Z,3.53
2022-10-02T20:59:03.638Z,3.97
2022-10-02T21:02:19.817Z,3.03
2022-10-02T21:05:07.979Z,3.43
2022-10-02T21:08:18.745Z,6.40
2022-10-02T21:11:13.475Z,3.73
2022-10-02T21:14:09.384Z,3.73
2022-10-02T21:17:13.816Z,3.37
2022-10-02T21:20:08.275Z,2.93
2022-10-02T21:23:15.093Z,3.83
2022-10-02T21:26:38.297Z,2.47
2022-10-02T21:29:44.001Z,2.97
2022-10-02T21:32:38.506Z,3.03
2022-10-02T21:35:54.503Z,4.53
2022-10-02T21:38:50.931Z,4.73
2022-10-02T21:42:00.739Z,3.63
2022-10-02T21:45:29.870Z,5.30
2022-10-02T21:49:01.615Z,3.60
2022-10-02T21:52:23.854Z,2.90
2022-10-02T21:55:41.353Z,3.37
2022-10-02T21:58:36.016Z,3.27
2022-10-02T22:01:38.809Z,3.60
2022-10-02T22:04:53.589Z,2.30
2022-10-02T22:08:14.746Z,4.13
2022-10-02T22:11:42.006Z,3.40
2022-10-02T22:14:46.910Z,2.90
2022-10-02T22:18:25.165Z,3.20
2022-10-02T22:21:20.174Z,2.47
2022-10-02T22:24:24.016Z,2.10
2022-10-02T22:27:21.756Z,5.27
2022-10-02T22:30:23.175Z,3.17
2022-10-02T22:33:13.960Z,2.40
2022-10-02T22:36:34.955Z,2.50
2022-10-02T22:39:57.723Z,2.90
2022-10-02T22:42:52.027Z,4.07
2022-10-02T22:45:48.502Z,2.33
2022-10-02T22:49:01.050Z,2.27
2022-10-02T22:51:54.158Z,1.83
2022-10-02T22:55:05.476Z,3.70
2022-10-02T22:58:02.527Z,2.47
2022-10-02T23:01:00.008Z,3.07
2022-10-02T23:03:58.665Z,2.47
2022-10-02T23:07:12.582Z,3.60
2022-10-02T23:10:03.524Z,5.03
2022-10-02T23:13:03.969Z,2.83
2022-10-02T23:16:06.068Z,3.77
2022-10-02T23:18:54.362Z,1.90
2022-10-02T23:21:47.967Z,3.60
2022-10-02T23:24:43.557Z,3.97
2022-10-02T23:27:46.184Z,2.50
2022-10-02T23:30:36.369Z,2.27
2022-10-02T23:33:41.086Z,2.70
2022-10-02T23:36:37.001Z,3.03
2022-10-02T23:39:49.422Z,1.73
2022-10-02T23:42:59.097Z,2.63
2022-10-02T23:45:51.809Z,3.20
2022-10-02T23:48:38.614Z,2.72
2022-10-02T23:51:41.135Z,3.23
2022-10-02T23:54:44.645Z,3.17
2022-10-02T23:57:33.124Z,2.17
